createdAt,value
2019-02-09T00:00:06.057Z,6.01
2019-02-09T00:01:07.022Z,5.91
2019-02-09T00:02:07.906Z,5.94
2019-02-09T00:03:08.317Z,5.94
2019-02-09T00:04:09.449Z,5.97
2019-02-09T00:05:10.907Z,6.02
2019-02-09T00:06:11.315Z,6.01
2019-02-09T00:07:12.004Z,5.99
2019-02-09T00:08:12.965Z,5.9
2019-02-09T00:09:13.650Z,5.91
2019-02-09T00:10:14.061Z,5.97
2019-02-09T00:11:15.184Z,5.83
2019-02-09T00:12:16.124Z,5.91
2019-02-09T00:13:16.825Z,5.91
2019-02-09T00:14:17.249Z,5.92
2019-02-09T00:15:17.945Z,5.95
2019-02-09T00:16:18.366Z,5.95
2019-02-09T00:17:20.056Z,5.94
2019-02-09T00:18:20.466Z,5.97
2019-02-09T00:19:21.876Z,5.95
2019-02-09T00:20:22.005Z,5.87
2019-02-09T00:21:22.690Z,5.88
2019-02-09T00:22:23.363Z,5.9
2019-02-09T00:23:23.771Z,5.92
2019-02-09T00:24:24.904Z,5.9
2019-02-09T00:25:26.039Z,5.91
2019-02-09T00:26:26.732Z,5.92
2019-02-09T00:27:27.261Z,5.92
2019-02-09T00:28:28.222Z,5.9
2019-02-09T00:29:28.634Z,5.83
2019-02-09T00:30:29.912Z,5.83
2019-02-09T00:31:29.877Z,5.79
2019-02-09T00:32:31.554Z,5.72
2019-02-09T00:33:31.244Z,5.7
2019-02-09T00:34:31.926Z,5.55
2019-02-09T00:35:33.335Z,5.64
2019-02-09T00:36:33.747Z,5.73
2019-02-09T00:37:34.161Z,5.79
2019-02-09T00:38:35.396Z,5.8
2019-02-09T00:39:35.810Z,5.88
2019-02-09T00:40:35.776Z,5.91
2019-02-09T00:41:36.739Z,5.88
2019-02-09T00:42:37.559Z,6.06
2019-02-09T00:43:38.018Z,6.07
2019-02-09T00:44:38.431Z,6.12
2019-02-09T00:45:39.559Z,6.13
2019-02-09T00:46:40.254Z,6.13
2019-02-09T00:47:40.661Z,6.12
2019-02-09T00:48:41.369Z,6.09
2019-02-09T00:49:41.774Z,6.16
2019-02-09T00:50:42.495Z,6.16
2019-02-09T00:51:43.184Z,6.28
2019-02-09T00:52:44.024Z,6.17
2019-02-09T00:53:45.267Z,6.22
2019-02-09T00:54:46.001Z,6.19
2019-02-09T00:55:46.130Z,6.1
2019-02-09T00:56:48.096Z,6.07
2019-02-09T00:57:47.501Z,6.13
2019-02-09T00:58:48.467Z,6.05
2019-02-09T00:59:55.767Z,6.12
2019-02-09T01:00:02.193Z,6.06
2019-02-09T01:01:02.596Z,6.09
2019-02-09T01:02:04.113Z,6.05
2019-02-09T01:03:03.799Z,5.92
2019-02-09T01:04:05.484Z,5.97
2019-02-09T01:05:05.899Z,5.97
2019-02-09T01:06:06.031Z,5.88
2019-02-09T01:07:06.437Z,5.84
2019-02-09T01:08:06.858Z,5.83
2019-02-09T01:09:07.550Z,5.83
2019-02-09T01:10:07.957Z,5.74
2019-02-09T01:11:08.613Z,5.84
2019-02-09T01:12:09.320Z,5.88
2019-02-09T01:13:10.034Z,5.88
2019-02-09T01:14:10.445Z,5.88
2019-02-09T01:15:11.694Z,5.81
2019-02-09T01:16:12.099Z,5.79
2019-02-09T01:17:12.791Z,5.8
2019-02-09T01:18:13.309Z,5.74
2019-02-09T01:19:13.996Z,5.8
2019-02-09T01:20:15.012Z,5.73
2019-02-09T01:21:15.843Z,5.74
2019-02-09T01:22:16.817Z,5.92
2019-02-09T01:23:17.781Z,5.9
2019-02-09T01:24:18.914Z,5.88
2019-02-09T01:25:19.885Z,5.94
2019-02-09T01:26:19.866Z,5.87
2019-02-09T01:27:20.555Z,5.9
2019-02-09T01:28:21.241Z,5.92
2019-02-09T01:29:22.503Z,5.84
2019-02-09T01:30:22.473Z,5.87
2019-02-09T01:31:23.564Z,5.84
2019-02-09T01:32:24.252Z,5.81
2019-02-09T01:33:25.219Z,5.77
2019-02-09T01:34:25.365Z,5.76
2019-02-09T01:35:26.063Z,5.77
2019-02-09T01:36:26.750Z,5.74
2019-02-09T01:37:27.159Z,5.76
2019-02-09T01:38:28.292Z,5.7
2019-02-09T01:39:29.425Z,5.65
2019-02-09T01:40:30.146Z,5.55
2019-02-09T01:41:31.242Z,5.56
2019-02-09T01:42:31.935Z,5.56
2019-02-09T01:43:32.911Z,5.56
2019-02-09T01:44:33.040Z,5.44
2019-02-09T01:45:34.007Z,5.37
2019-02-09T01:46:34.412Z,5.4
2019-02-09T01:47:34.826Z,5.4
2019-02-09T01:48:35.788Z,5.4
2019-02-09T01:49:35.933Z,5.37
2019-02-09T01:50:37.896Z,5.33
2019-02-09T01:51:38.015Z,5.34
2019-02-09T01:52:39.426Z,5.41
2019-02-09T01:53:40.130Z,5.41
2019-02-09T01:54:41.091Z,5.36
2019-02-09T01:55:41.605Z,5.41
2019-02-09T01:56:41.577Z,5.43
2019-02-09T01:57:42.266Z,5.41
2019-02-09T01:58:42.955Z,5.44
2019-02-09T01:59:43.195Z,5.33
2019-02-09T02:00:44.169Z,5.41
2019-02-09T02:01:45.115Z,5.38
2019-02-09T02:02:45.528Z,5.28
2019-02-09T02:03:46.494Z,5.28
2019-02-09T02:04:46.628Z,5.22
2019-02-09T02:05:47.326Z,5.19
2019-02-09T02:06:48.007Z,5.18
2019-02-09T02:07:48.473Z,5.23
2019-02-09T02:08:48.610Z,5.19
2019-02-09T02:09:49.570Z,5.16
2019-02-09T02:10:49.976Z,5.08
2019-02-09T02:11:50.809Z,5.04
2019-02-09T02:12:51.251Z,5.05
2019-02-09T02:13:51.663Z,5.04
2019-02-09T02:14:52.901Z,5.1
2019-02-09T02:15:53.141Z,5.08
2019-02-09T02:16:53.547Z,5.07
2019-02-09T02:17:55.064Z,5.04
2019-02-09T02:18:55.502Z,5.05
2019-02-09T02:19:55.918Z,5.1
2019-02-09T02:20:56.603Z,5.07
2019-02-09T02:21:56.890Z,5.04
2019-02-09T02:22:58.363Z,5
2019-02-09T02:23:58.491Z,4.97
2019-02-09T02:24:58.897Z,5.05
2019-02-09T02:25:59.925Z,5
2019-02-09T02:27:00.612Z,5.02
2019-02-09T02:28:01.317Z,4.89
2019-02-09T02:29:02.001Z,4.89
2019-02-09T02:30:02.570Z,4.87
2019-02-09T02:31:03.299Z,4.83
2019-02-09T02:32:04.224Z,4.79
2019-02-09T02:33:05.363Z,4.87
2019-02-09T02:34:06.044Z,4.86
2019-02-09T02:35:06.731Z,4.9
2019-02-09T02:36:07.528Z,4.79
2019-02-09T02:37:08.659Z,4.84
2019-02-09T02:38:09.906Z,4.83
2019-02-09T02:39:10.595Z,4.82
2019-02-09T02:40:11.010Z,4.83
2019-02-09T02:41:12.097Z,4.71
2019-02-09T02:42:13.240Z,4.74
2019-02-09T02:43:13.370Z,4.7
2019-02-09T02:44:14.621Z,4.83
2019-02-09T02:45:15.592Z,4.75
2019-02-09T02:46:16.284Z,4.71
2019-02-09T02:47:17.804Z,4.79
2019-02-09T02:48:18.489Z,4.82
2019-02-09T02:49:18.898Z,4.79
2019-02-09T02:50:19.899Z,4.74
2019-02-09T02:51:20.155Z,4.76
2019-02-09T02:52:20.890Z,4.71
2019-02-09T02:53:21.856Z,4.66
2019-02-09T02:54:22.820Z,4.79
2019-02-09T02:55:23.791Z,4.7
2019-02-09T02:56:24.903Z,4.57
2019-02-09T02:57:25.872Z,4.68
2019-02-09T02:58:26.124Z,4.57
2019-02-09T02:59:27.536Z,4.61
2019-02-09T03:00:34.407Z,4.57
2019-02-09T03:00:39.977Z,4.53
2019-02-09T03:01:41.347Z,4.63
2019-02-09T03:02:42.623Z,4.57
2019-02-09T03:03:42.590Z,4.58
2019-02-09T03:04:43.719Z,4.64
2019-02-09T03:05:45.958Z,4.7
2019-02-09T03:06:47.731Z,4.64
2019-02-09T03:07:47.076Z,4.66
2019-02-09T03:08:48.215Z,4.63
2019-02-09T03:09:48.971Z,4.6
2019-02-09T03:10:49.660Z,4.64
2019-02-09T03:11:50.889Z,4.63
2019-02-09T03:12:51.574Z,4.71
2019-02-09T03:13:53.111Z,4.64
2019-02-09T03:14:53.076Z,4.61
2019-02-09T03:15:53.760Z,4.68
2019-02-09T03:16:54.203Z,4.66
2019-02-09T03:17:54.907Z,4.68
2019-02-09T03:18:55.435Z,4.7
2019-02-09T03:19:56.688Z,4.76
2019-02-09T03:20:57.105Z,4.78
2019-02-09T03:21:58.235Z,4.78
2019-02-09T03:22:59.201Z,4.79
2019-02-09T03:24:00.171Z,4.86
2019-02-09T03:25:00.723Z,4.9
2019-02-09T03:26:01.414Z,4.9
2019-02-09T03:27:02.101Z,4.86
2019-02-09T03:28:03.784Z,4.87
2019-02-09T03:29:04.476Z,4.94
2019-02-09T03:30:05.166Z,4.89
2019-02-09T03:31:06.439Z,4.9
2019-02-09T03:32:11.199Z,4.87
2019-02-09T03:32:19.632Z,4.76
2019-02-09T03:33:20.548Z,4.87
2019-02-09T03:34:21.392Z,4.83
2019-02-09T03:35:21.375Z,4.95
2019-02-09T03:36:22.094Z,4.89
2019-02-09T03:37:22.500Z,4.82
2019-02-09T03:38:22.911Z,4.87
2019-02-09T03:39:23.602Z,4.94
2019-02-09T03:40:24.329Z,4.83
2019-02-09T03:41:24.741Z,4.87
2019-02-09T03:42:26.037Z,4.97
2019-02-09T03:43:26.464Z,5.02
2019-02-09T03:44:27.429Z,4.97
2019-02-09T03:45:28.981Z,5
2019-02-09T03:46:29.286Z,5.07
2019-02-09T03:47:29.693Z,5.07
2019-02-09T03:48:30.106Z,5.07
2019-02-09T03:49:31.516Z,5.12
2019-02-09T03:50:32.220Z,5.15
2019-02-09T03:51:32.974Z,5.15
2019-02-09T03:52:34.214Z,5.02
2019-02-09T03:53:35.037Z,5.02
2019-02-09T03:54:35.756Z,5.12
2019-02-09T03:55:36.443Z,5.1
2019-02-09T03:56:37.691Z,5.08
2019-02-09T03:57:38.659Z,5.15
2019-02-09T03:58:39.366Z,5.12
2019-02-09T03:59:40.328Z,5.25
2019-02-09T04:00:41.327Z,5.2
2019-02-09T04:01:42.292Z,5.22
2019-02-09T04:02:42.266Z,5.26
2019-02-09T04:03:43.417Z,5.25
2019-02-09T04:04:44.378Z,5.36
2019-02-09T04:05:45.713Z,5.34
2019-02-09T04:06:46.253Z,5.31
2019-02-09T04:07:47.230Z,5.36
2019-02-09T04:08:48.197Z,5.31
2019-02-09T04:09:49.195Z,5.34
2019-02-09T04:10:49.607Z,5.33
2019-02-09T04:11:50.571Z,5.43
2019-02-09T04:12:51.815Z,5.4
2019-02-09T04:13:51.790Z,5.44
2019-02-09T04:14:53.035Z,5.37
2019-02-09T04:15:53.559Z,5.41
2019-02-09T04:16:54.254Z,5.51
2019-02-09T04:17:55.009Z,5.4
2019-02-09T04:18:54.998Z,5.43
2019-02-09T04:19:55.963Z,5.41
2019-02-09T04:20:57.381Z,5.38
2019-02-09T04:21:58.345Z,5.41
2019-02-09T04:22:59.028Z,5.46
2019-02-09T04:24:00.431Z,5.44
2019-02-09T04:25:01.600Z,5.41
2019-02-09T04:26:03.124Z,5.43
2019-02-09T04:27:03.087Z,5.28
2019-02-09T04:28:03.783Z,5.16
2019-02-09T04:29:04.210Z,5.16
2019-02-09T04:30:04.729Z,5.12
2019-02-09T04:31:08.070Z,5.12
2019-02-09T04:32:07.766Z,5.01
2019-02-09T04:33:09.025Z,5.1
2019-02-09T04:34:09.430Z,5.08
2019-02-09T04:35:09.890Z,5.05
2019-02-09T04:36:10.856Z,5.02
2019-02-09T04:37:10.818Z,5.12
2019-02-09T04:38:12.353Z,5.15
2019-02-09T04:39:13.159Z,5.16
2019-02-09T04:40:12.844Z,5.19
2019-02-09T04:41:13.532Z,5.2
2019-02-09T04:42:14.048Z,5.23
2019-02-09T04:43:15.462Z,5.31
2019-02-09T04:44:16.152Z,5.29
2019-02-09T04:45:17.117Z,5.28
2019-02-09T04:46:17.371Z,5.31
2019-02-09T04:47:18.070Z,5.36
2019-02-09T04:48:19.036Z,5.26
2019-02-09T04:49:19.445Z,5.34
2019-02-09T04:50:19.862Z,5.23
2019-02-09T04:51:20.876Z,5.22
2019-02-09T04:52:21.561Z,5.16
2019-02-09T04:53:22.273Z,5.2
2019-02-09T04:54:23.084Z,5.26
2019-02-09T04:55:24.621Z,5.22
2019-02-09T04:56:24.610Z,5.26
2019-02-09T04:57:25.339Z,5.25
2019-02-09T04:58:38.336Z,5.28
2019-02-09T04:59:39.356Z,5.26
2019-02-09T05:00:40.049Z,5.29
2019-02-09T05:01:40.753Z,5.25
2019-02-09T05:02:41.899Z,5.37
2019-02-09T05:03:42.871Z,5.31
2019-02-09T05:04:43.565Z,5.28
2019-02-09T05:05:43.708Z,5.2
2019-02-09T05:06:44.710Z,5.23
2019-02-09T05:07:45.416Z,5.26
2019-02-09T05:08:46.161Z,5.18
2019-02-09T05:09:47.116Z,5.12
2019-02-09T05:10:47.406Z,5.08
2019-02-09T05:11:47.847Z,5.02
2019-02-09T05:12:48.544Z,5.07
2019-02-09T05:13:49.800Z,5.08
2019-02-09T05:14:50.329Z,5.02
2019-02-09T05:15:51.587Z,5.02
2019-02-09T05:16:51.571Z,5.13
2019-02-09T05:17:52.892Z,5.01
2019-02-09T05:18:53.701Z,5.12
2019-02-09T05:19:54.572Z,5.15
2019-02-09T05:20:55.006Z,5.25
2019-02-09T05:21:55.698Z,5.29
2019-02-09T05:22:56.411Z,5.28
2019-02-09T05:23:57.115Z,5.33
2019-02-09T05:24:58.544Z,5.31
2019-02-09T05:25:59.240Z,5.37
2019-02-09T05:26:59.517Z,5.4
2019-02-09T05:27:59.985Z,5.38
2019-02-09T05:29:00.400Z,5.4
2019-02-09T05:30:01.148Z,5.55
2019-02-09T05:31:01.402Z,5.55
2019-02-09T05:32:02.092Z,5.61
2019-02-09T05:33:02.918Z,5.51
2019-02-09T05:34:03.369Z,5.51
2019-02-09T05:35:04.908Z,5.61
2019-02-09T05:36:05.601Z,5.58
2019-02-09T05:37:06.744Z,5.61
2019-02-09T05:38:07.715Z,5.61
2019-02-09T05:39:07.980Z,5.59
2019-02-09T05:40:09.294Z,5.58
2019-02-09T05:41:10.267Z,5.62
2019-02-09T05:42:11.554Z,5.73
2019-02-09T05:43:11.999Z,5.72
2019-02-09T05:44:12.806Z,5.7
2019-02-09T05:45:12.947Z,5.81
2019-02-09T05:46:13.920Z,5.72
2019-02-09T05:47:15.061Z,5.76
2019-02-09T05:48:16.312Z,5.79
2019-02-09T05:49:16.289Z,5.84
2019-02-09T05:50:16.983Z,5.99
2019-02-09T05:51:17.691Z,5.95
2019-02-09T05:52:17.681Z,6.1
2019-02-09T05:53:18.656Z,6.01
2019-02-09T05:54:20.353Z,5.99
2019-02-09T05:55:20.772Z,6.02
2019-02-09T05:56:21.805Z,6.1
2019-02-09T05:57:22.777Z,6.01
2019-02-09T05:58:23.498Z,5.98
2019-02-09T05:59:24.763Z,5.91
2019-02-09T06:00:24.590Z,5.83
2019-02-09T06:01:37.055Z,5.76
2019-02-09T06:02:38.175Z,5.8
2019-02-09T06:03:38.879Z,5.84
2019-02-09T06:04:40.133Z,5.9
2019-02-09T06:05:40.556Z,5.99
2019-02-09T06:06:41.572Z,5.91
2019-02-09T06:07:42.547Z,5.95
2019-02-09T06:08:43.262Z,5.91
2019-02-09T06:09:43.959Z,5.92
2019-02-09T06:10:43.671Z,5.95
2019-02-09T06:11:44.654Z,5.9
2019-02-09T06:12:45.799Z,5.92
2019-02-09T06:13:47.050Z,5.94
2019-02-09T06:14:47.796Z,5.98
2019-02-09T06:15:48.770Z,6.02
2019-02-09T06:16:48.478Z,6.09
2019-02-09T06:17:49.625Z,6.07
2019-02-09T06:18:50.616Z,6.06
2019-02-09T06:19:51.316Z,6.07
2019-02-09T06:20:52.007Z,6.07
2019-02-09T06:21:52.702Z,6.12
2019-02-09T06:22:53.308Z,6.05
2019-02-09T06:23:54.288Z,6.06
2019-02-09T06:24:54.270Z,5.99
2019-02-09T06:25:55.047Z,5.95
2019-02-09T06:26:55.738Z,5.99
2019-02-09T06:27:56.768Z,6.2
2019-02-09T06:28:57.775Z,6.39
2019-02-09T06:29:58.821Z,6.49
2019-02-09T06:30:59.863Z,6.34
2019-02-09T06:32:00.300Z,6.34
2019-02-09T06:33:01.769Z,6.29
2019-02-09T06:34:02.021Z,6.25
2019-02-09T06:35:02.719Z,6.13
2019-02-09T06:36:03.528Z,6.16
2019-02-09T06:37:03.792Z,6.17
2019-02-09T06:38:03.936Z,6.1
2019-02-09T06:39:04.688Z,5.99
2019-02-09T06:40:05.713Z,6.1
2019-02-09T06:41:05.982Z,6.1
2019-02-09T06:42:06.956Z,6.07
2019-02-09T06:43:07.628Z,5.94
2019-02-09T06:44:08.048Z,6.06
2019-02-09T06:45:09.190Z,5.92
2019-02-09T06:46:10.331Z,5.99
2019-02-09T06:47:11.029Z,5.92
2019-02-09T06:48:12.000Z,5.95
2019-02-09T06:49:12.419Z,6.07
2019-02-09T06:50:12.882Z,6.12
2019-02-09T06:51:13.581Z,6.07
2019-02-09T06:52:15.287Z,6.15
2019-02-09T06:53:15.394Z,6.22
2019-02-09T06:54:15.814Z,6.34
2019-02-09T06:55:16.075Z,6.46
2019-02-09T06:56:16.777Z,6.44
2019-02-09T06:57:19.865Z,6.46
2019-02-09T06:58:18.715Z,6.46
2019-02-09T06:59:19.409Z,6.52
2019-02-09T07:00:19.384Z,6.47
2019-02-09T07:01:20.919Z,6.52
2019-02-09T07:02:21.341Z,6.44
2019-02-09T07:03:21.982Z,6.44
2019-02-09T07:04:22.403Z,6.62
2019-02-09T07:05:22.834Z,6.6
2019-02-09T07:06:23.530Z,6.64
2019-02-09T07:07:24.225Z,6.59
2019-02-09T07:08:24.642Z,6.62
2019-02-09T07:09:25.064Z,6.68
2019-02-09T07:10:25.769Z,6.65
2019-02-09T07:11:26.191Z,6.7
2019-02-09T07:12:27.610Z,6.68
2019-02-09T07:13:28.314Z,6.71
2019-02-09T07:14:28.742Z,6.72
2019-02-09T07:15:28.892Z,6.83
2019-02-09T07:16:29.600Z,6.82
2019-02-09T07:17:29.574Z,6.85
2019-02-09T07:18:30.304Z,6.8
2019-02-09T07:19:31.444Z,6.89
2019-02-09T07:20:32.691Z,6.83
2019-02-09T07:21:32.387Z,6.89
2019-02-09T07:22:33.808Z,6.9
2019-02-09T07:23:34.386Z,6.86
2019-02-09T07:24:35.803Z,6.85
2019-02-09T07:25:37.067Z,6.97
2019-02-09T07:26:37.043Z,6.89
2019-02-09T07:27:37.741Z,7.01
2019-02-09T07:28:38.436Z,7.03
2019-02-09T07:29:39.142Z,7.07
2019-02-09T07:30:40.113Z,7.08
2019-02-09T07:31:40.816Z,6.95
2019-02-09T07:32:41.522Z,6.97
2019-02-09T07:33:42.376Z,6.96
2019-02-09T07:34:42.813Z,6.89
2019-02-09T07:35:45.414Z,6.92
2019-02-09T07:36:45.116Z,6.92
2019-02-09T07:37:46.088Z,6.86
2019-02-09T07:38:46.233Z,6.89
2019-02-09T07:39:47.209Z,6.9
2019-02-09T07:40:47.483Z,7.03
2019-02-09T07:41:48.460Z,7.04
2019-02-09T07:42:48.884Z,7.04
2019-02-09T07:43:50.548Z,7.03
2019-02-09T07:44:50.972Z,6.97
2019-02-09T07:45:52.679Z,6.87
2019-02-09T07:46:52.948Z,6.77
2019-02-09T07:47:53.368Z,6.82
2019-02-09T07:48:54.069Z,6.8
2019-02-09T07:49:54.769Z,6.85
2019-02-09T07:50:55.470Z,6.83
2019-02-09T07:51:55.889Z,6.78
2019-02-09T07:52:56.312Z,6.74
2019-02-09T07:53:57.153Z,6.85
2019-02-09T07:54:58.294Z,6.83
2019-02-09T07:55:59.438Z,6.87
2019-02-09T07:56:59.696Z,6.82
2019-02-09T07:58:00.407Z,6.83
2019-02-09T07:59:00.554Z,6.86
2019-02-09T08:00:02.252Z,6.89
2019-02-09T08:01:03.230Z,6.78
2019-02-09T08:02:06.333Z,6.77
2019-02-09T08:03:07.038Z,6.65
2019-02-09T08:04:08.183Z,6.72
2019-02-09T08:05:08.331Z,6.72
2019-02-09T08:06:08.751Z,6.71
2019-02-09T08:07:09.736Z,6.7
2019-02-09T08:08:10.437Z,6.72
2019-02-09T08:09:11.418Z,6.75
2019-02-09T08:10:11.566Z,6.67
2019-02-09T08:11:12.278Z,6.7
2019-02-09T08:12:12.988Z,6.7
2019-02-09T08:13:14.241Z,6.77
2019-02-09T08:14:15.931Z,6.71
2019-02-09T08:15:16.906Z,6.71
2019-02-09T08:16:17.611Z,6.77
2019-02-09T08:17:18.597Z,6.57
2019-02-09T08:18:19.018Z,6.6
2019-02-09T08:19:20.164Z,6.39
2019-02-09T08:20:20.585Z,6.39
2019-02-09T08:21:21.283Z,6.2
2019-02-09T08:22:22.429Z,6.1
2019-02-09T08:23:22.851Z,6.01
2019-02-09T08:24:23.237Z,5.91
2019-02-09T08:25:23.939Z,5.91
2019-02-09T08:26:24.644Z,5.94
2019-02-09T08:27:25.069Z,5.92
2019-02-09T08:28:26.213Z,6.01
2019-02-09T08:29:27.189Z,6.05
2019-02-09T08:30:27.443Z,6.09
2019-02-09T08:31:27.422Z,6.1
2019-02-09T08:32:27.842Z,6.02
2019-02-09T08:33:28.824Z,6.16
2019-02-09T08:34:29.386Z,6.1
2019-02-09T08:35:29.807Z,6.28
2019-02-09T08:36:30.509Z,6.31
2019-02-09T08:37:31.484Z,6.32
2019-02-09T08:38:32.746Z,6.38
2019-02-09T08:39:33.093Z,6.44
2019-02-09T08:40:33.520Z,6.43
2019-02-09T08:41:34.502Z,6.59
2019-02-09T08:42:34.649Z,6.6
2019-02-09T08:43:36.354Z,6.72
2019-02-09T08:44:36.951Z,6.67
2019-02-09T08:45:37.937Z,6.71
2019-02-09T08:46:38.655Z,6.75
2019-02-09T08:47:39.355Z,6.74
2019-02-09T08:48:39.505Z,6.75
2019-02-09T08:49:40.923Z,6.7
2019-02-09T08:50:41.902Z,6.85
2019-02-09T08:51:42.600Z,6.85
2019-02-09T08:52:43.747Z,6.87
2019-02-09T08:53:44.891Z,6.77
2019-02-09T08:54:46.316Z,6.8
2019-02-09T08:55:47.016Z,6.82
2019-02-09T08:56:47.922Z,6.86
2019-02-09T08:57:48.436Z,6.87
2019-02-09T08:58:49.435Z,7.04
2019-02-09T08:59:49.616Z,7.03
2019-02-09T09:00:50.764Z,7
2019-02-09T09:01:52.193Z,7.05
2019-02-09T09:02:53.763Z,7.01
2019-02-09T09:03:53.515Z,7.03
2019-02-09T09:04:54.585Z,7.04
2019-02-09T09:05:55.003Z,7.03
2019-02-09T09:06:55.704Z,7.07
2019-02-09T09:07:56.966Z,7.18
2019-02-09T09:08:57.672Z,7.23
2019-02-09T09:09:57.693Z,7.23
2019-02-09T09:10:58.116Z,7.23
2019-02-09T09:11:59.032Z,7.23
2019-02-09T09:13:00.020Z,7.22
2019-02-09T09:14:04.259Z,7.21
2019-02-09T09:14:15.580Z,7.23
2019-02-09T09:14:24.699Z,7.32
2019-02-09T09:15:23.820Z,7.25
2019-02-09T09:16:24.242Z,7.18
2019-02-09T09:17:24.947Z,7.28
2019-02-09T09:18:25.372Z,7.29
2019-02-09T09:19:26.352Z,7.26
2019-02-09T09:20:26.774Z,7.25
2019-02-09T09:21:27.255Z,7.25
2019-02-09T09:22:28.286Z,7.25
2019-02-09T09:23:28.990Z,7.21
2019-02-09T09:24:29.136Z,7.05
2019-02-09T09:25:30.544Z,7
2019-02-09T09:26:30.522Z,6.97
2019-02-09T09:27:31.237Z,6.92
2019-02-09T09:28:32.386Z,6.96
2019-02-09T09:29:33.365Z,7
2019-02-09T09:30:34.792Z,7.04
2019-02-09T09:31:35.048Z,7.05
2019-02-09T09:32:35.469Z,7.07
2019-02-09T09:33:35.894Z,7.01
2019-02-09T09:34:36.875Z,7.05
2019-02-09T09:35:37.296Z,7.01
2019-02-09T09:36:37.860Z,7.04
2019-02-09T09:37:38.294Z,7.03
2019-02-09T09:38:39.012Z,7.13
2019-02-09T09:39:40.018Z,7.14
2019-02-09T09:40:40.171Z,7.15
2019-02-09T09:41:40.877Z,7.22
2019-02-09T09:42:42.302Z,7.19
2019-02-09T09:43:43.003Z,7.15
2019-02-09T09:44:43.449Z,7.15
2019-02-09T09:45:44.307Z,7.07
2019-02-09T09:46:44.461Z,7.07
2019-02-09T09:47:45.887Z,7.04
2019-02-09T09:48:46.371Z,7.04
2019-02-09T09:49:47.068Z,6.89
2019-02-09T09:50:48.327Z,6.89
2019-02-09T09:51:49.027Z,6.83
2019-02-09T09:52:50.011Z,6.86
2019-02-09T09:53:50.723Z,6.95
2019-02-09T09:54:51.425Z,6.95
2019-02-09T09:55:52.596Z,6.97
2019-02-09T09:56:53.606Z,7.11
2019-02-09T09:57:53.869Z,7.03
2019-02-09T09:58:54.873Z,7.19
2019-02-09T09:59:55.303Z,7.18
2019-02-09T10:00:56.284Z,7.25
2019-02-09T10:01:56.985Z,7.32
2019-02-09T10:02:56.971Z,7.4
2019-02-09T10:03:57.398Z,7.5
2019-02-09T10:04:58.549Z,7.44
2019-02-09T10:05:59.384Z,7.59
2019-02-09T10:06:59.813Z,7.61
2019-02-09T10:08:00.000Z,7.62
2019-02-09T10:09:00.276Z,7.74
2019-02-09T10:10:01.661Z,7.67
2019-02-09T10:11:01.767Z,7.69
2019-02-09T10:12:02.465Z,7.72
2019-02-09T10:13:02.892Z,7.77
2019-02-09T10:14:10.084Z,7.78
2019-02-09T10:14:15.694Z,7.8
2019-02-09T10:15:16.539Z,7.8
2019-02-09T10:16:16.688Z,7.78
2019-02-09T10:17:17.114Z,7.78
2019-02-09T10:18:18.258Z,7.77
2019-02-09T10:19:18.965Z,7.81
2019-02-09T10:20:19.687Z,7.84
2019-02-09T10:21:20.837Z,7.78
2019-02-09T10:22:21.823Z,7.91
2019-02-09T10:23:23.250Z,7.96
2019-02-09T10:24:24.391Z,7.88
2019-02-09T10:25:25.272Z,7.99
2019-02-09T10:26:26.250Z,7.91
2019-02-09T10:27:27.707Z,7.85
2019-02-09T10:28:28.137Z,7.88
2019-02-09T10:29:28.563Z,7.87
2019-02-09T10:30:29.545Z,7.98
2019-02-09T10:31:29.527Z,7.9
2019-02-09T10:32:29.672Z,7.85
2019-02-09T10:33:30.655Z,7.9
2019-02-09T10:34:30.634Z,7.83
2019-02-09T10:35:31.751Z,7.95
2019-02-09T10:36:32.733Z,7.96
2019-02-09T10:37:33.720Z,7.95
2019-02-09T10:38:34.145Z,8.06
2019-02-09T10:39:35.125Z,8.11
2019-02-09T10:40:35.323Z,8.17
2019-02-09T10:41:36.028Z,8.35
2019-02-09T10:42:37.389Z,8.35
2019-02-09T10:43:38.534Z,8.52
2019-02-09T10:44:38.126Z,8.74
2019-02-09T10:45:38.742Z,8.82
2019-02-09T10:46:39.464Z,9.08
2019-02-09T10:47:39.900Z,9.12
2019-02-09T10:48:40.325Z,9.19
2019-02-09T10:49:41.308Z,9.33
2019-02-09T10:50:41.455Z,9.42
2019-02-09T10:51:42.158Z,9.51
2019-02-09T10:52:42.305Z,9.64
2019-02-09T10:53:43.457Z,9.74
2019-02-09T10:54:43.879Z,9.85
2019-02-09T10:55:44.719Z,9.85
2019-02-09T10:56:45.419Z,9.84
2019-02-09T10:57:46.577Z,10.06
2019-02-09T10:58:47.004Z,10.12
2019-02-09T10:59:47.431Z,10.15
2019-02-09T11:00:48.414Z,10.24
2019-02-09T11:01:48.128Z,10.25
2019-02-09T11:02:53.821Z,10.28
2019-02-09T11:03:00.901Z,10.25
2019-02-09T11:04:02.099Z,10.36
2019-02-09T11:05:03.090Z,10.77
2019-02-09T11:06:02.816Z,11.1
2019-02-09T11:07:03.522Z,11.37
2019-02-09T11:08:08.806Z,11.51
2019-02-09T11:08:17.018Z,11.45
2019-02-09T11:09:19.328Z,11.45
2019-02-09T11:10:18.225Z,11.45
2019-02-09T11:11:19.497Z,11.43
2019-02-09T11:12:19.649Z,11.38
2019-02-09T11:13:21.359Z,11.3
2019-02-09T11:14:21.794Z,11.34
2019-02-09T11:15:22.222Z,11.48
2019-02-09T11:16:23.207Z,11.34
2019-02-09T11:17:23.361Z,11.35
2019-02-09T11:18:23.795Z,11.3
2019-02-09T11:19:24.192Z,11.55
2019-02-09T11:20:24.899Z,11.76
2019-02-09T11:21:25.329Z,11.7
2019-02-09T11:22:25.761Z,11.81
2019-02-09T11:23:26.469Z,11.85
2019-02-09T11:24:28.188Z,11.63
2019-02-09T11:25:29.170Z,11.37
2019-02-09T11:26:29.612Z,11.22
2019-02-09T11:27:30.151Z,11.2
2019-02-09T11:28:31.136Z,11.2
2019-02-09T11:29:31.822Z,11.35
2019-02-09T11:30:33.084Z,11.33
2019-02-09T11:31:33.240Z,11.33
2019-02-09T11:32:34.346Z,11.34
2019-02-09T11:33:34.543Z,11.44
2019-02-09T11:34:36.530Z,11.48
2019-02-09T11:35:36.997Z,11.88
2019-02-09T11:36:37.774Z,11.85
2019-02-09T11:37:38.775Z,12.03
2019-02-09T11:38:38.933Z,12.18
2019-02-09T11:39:39.506Z,12.03
2019-02-09T11:40:39.939Z,11.83
2019-02-09T11:41:41.089Z,11.74
2019-02-09T11:42:42.072Z,11.63
2019-02-09T11:43:42.501Z,11.51
2019-02-09T11:44:43.657Z,11.27
2019-02-09T11:45:44.641Z,11.15
2019-02-09T11:46:45.906Z,10.98
2019-02-09T11:47:46.331Z,10.8
2019-02-09T11:48:46.485Z,10.92
2019-02-09T11:49:47.621Z,10.94
2019-02-09T11:50:48.763Z,11.05
2019-02-09T11:51:49.191Z,10.89
2019-02-09T11:52:50.355Z,10.95
2019-02-09T11:53:51.678Z,10.87
2019-02-09T11:54:51.592Z,10.79
2019-02-09T11:55:52.346Z,10.61
2019-02-09T11:56:53.062Z,10.71
2019-02-09T11:57:54.054Z,10.72
2019-02-09T11:58:55.050Z,10.61
2019-02-09T11:59:56.199Z,10.39
2019-02-09T12:00:57.187Z,10.2
2019-02-09T12:01:57.898Z,10.12
2019-02-09T12:03:24.881Z,9.94
2019-02-09T12:04:24.039Z,10.1
2019-02-09T12:05:25.683Z,10.06
2019-02-09T12:06:26.052Z,10.06
2019-02-09T12:07:27.340Z,10.1
2019-02-09T12:08:28.051Z,10.3
2019-02-09T12:09:28.037Z,10.45
2019-02-09T12:10:29.758Z,10.62
2019-02-09T12:11:30.183Z,10.68
2019-02-09T12:12:33.414Z,10.51
2019-02-09T12:13:32.128Z,10.67
2019-02-09T12:14:32.972Z,10.72
2019-02-09T12:15:33.401Z,10.9
2019-02-09T12:16:34.391Z,11.13
2019-02-09T12:17:34.819Z,11.04
2019-02-09T12:18:36.082Z,11.05
2019-02-09T12:19:37.109Z,10.92
2019-02-09T12:20:38.826Z,10.82
2019-02-09T12:21:39.533Z,10.71
2019-02-09T12:22:40.686Z,10.61
2019-02-09T12:23:42.141Z,10.42
2019-02-09T12:24:43.294Z,10.27
2019-02-09T12:25:43.489Z,10.3
2019-02-09T12:26:44.921Z,10.55
2019-02-09T12:27:46.628Z,10.57
2019-02-09T12:28:47.167Z,10.75
2019-02-09T12:29:47.335Z,10.58
2019-02-09T12:30:48.322Z,10.57
2019-02-09T12:31:48.774Z,10.49
2019-02-09T12:32:49.316Z,10.64
2019-02-09T12:33:49.581Z,10.67
2019-02-09T12:34:49.906Z,10.59
2019-02-09T12:35:51.460Z,10.59
2019-02-09T12:36:51.611Z,10.65
2019-02-09T12:37:52.627Z,10.71
2019-02-09T12:38:53.353Z,10.67
2019-02-09T12:39:54.061Z,10.59
2019-02-09T12:40:54.495Z,10.34
2019-02-09T12:41:54.921Z,10.31
2019-02-09T12:42:58.232Z,10.38
2019-02-09T12:43:57.666Z,10.38
2019-02-09T12:44:58.519Z,10.51
2019-02-09T12:45:59.622Z,10.61
2019-02-09T12:46:59.885Z,10.68
2019-02-09T12:48:00.931Z,10.72
2019-02-09T12:49:01.374Z,10.82
2019-02-09T12:50:02.634Z,10.87
2019-02-09T12:51:03.190Z,10.79
2019-02-09T12:52:03.625Z,10.62
2019-02-09T12:53:04.329Z,10.43
2019-02-09T12:54:04.483Z,10.46
2019-02-09T12:55:05.336Z,10.3
2019-02-09T12:56:05.762Z,10.17
2019-02-09T12:57:06.468Z,10.06
2019-02-09T12:58:06.893Z,9.94
2019-02-09T12:59:20.244Z,9.94
2019-02-09T13:00:20.087Z,9.73
2019-02-09T13:01:21.236Z,9.72
2019-02-09T13:02:22.243Z,9.74
2019-02-09T13:03:36.023Z,9.76
2019-02-09T13:04:37.145Z,9.73
2019-02-09T13:05:37.573Z,9.73
2019-02-09T13:06:39.278Z,9.72
2019-02-09T13:07:45.355Z,9.87
2019-02-09T13:07:55.941Z,9.81
2019-02-09T13:08:08.798Z,9.73
2019-02-09T13:08:20.107Z,9.84
2019-02-09T13:09:17.842Z,9.76
2019-02-09T13:10:19.112Z,9.64
2019-02-09T13:11:19.366Z,9.72
2019-02-09T13:12:19.796Z,9.66
2019-02-09T13:13:20.946Z,9.66
2019-02-09T13:14:23.667Z,9.52
2019-02-09T13:15:22.231Z,9.48
2019-02-09T13:16:22.935Z,9.3
2019-02-09T13:17:24.195Z,9.27
2019-02-09T13:18:24.340Z,9.27
2019-02-09T13:19:24.631Z,9.29